Aérodrome :
LOGIN :

S'inscrire | Disclaimer

   EN    FR    IT 

 










Légende :    VFR   VFR Marginal   IFR   IFR Intensif   IFR Très Intensif
Visi : 
Plafond : 
>= 8 km
>= 3000ft
5 à 8 km
1000 à 3000 ft
1500m à 5 km
500 à 1000 ft
800 à 1500m
200 à 500 ft
< 800m
< 200 ft
Symboles :   Orages  Brouillard  Fortes neiges  Fortes précipitations  Vent > 20 kt
SIGMETs :   Divers  Orages  Givrage  Turbulence  Onde Orograph.  Cendres Volcan.







- Altitude de l'aérodrome : 436 ft
- Code IATA : ANG
- Voir les cartes d'approche


LFBU - Angoulême Brie Champniers

DERNIER METAR :
  • 232000Z AUTO 18004KT 5000 BR FEW003 BKN049 ///// Q1028 TEMPO 2000 BR OVC002

METARs EXPIRÉS :
  • 231930Z AUTO 18005KT 6000 FEW005 BKN049 11/11 Q1028 TEMPO 2000 BR OVC002
  • 231900Z AUTO 18004KT 6000 BKN005 OVC050 11/11 Q1028 TEMPO 2000 BR
  • 231830Z AUTO 18004KT 5000 BR OVC005 11/11 Q1028 TEMPO 2000 BR
  • 231800Z AUTO 17004KT 5000 BR OVC003 11/11 Q1028 TEMPO 2000 BR
  • 231730Z AUTO 18004KT 4700 BR OVC002 11/11 Q1028 TEMPO 2000 BR

TAF TAF LFBU
Valide du 23 à 18h jusqu'au 24 à 18h UTC


231700Z 2318/2418 18008KT 7000 BKN005
TEMPO 2318/2410 2000 BR OVC002
BECMG 2411/2413 BKN015
BECMG 2413/2415 CAVOK
Pas de NOTAMs connus pour ce terrain.



MET'MAP, la Météo Aéronautique d'un coup d'oeil ! - Copyright ORBIFLY Décembre 2007 - Disclaimer

ORBIFLY MET'MAP TEAM :

Programmation & Développement : Alexandra Zaïnal
Conception & Développement : Baudouin d'Aumeries
Co-Programmation & Développement : Marc-Olivier Méhu
Soutien technique & logistique : Manuel Goepfert

Contact : metmap@orbifly.com




SOURCES & CREDITS :

   NOAA